Time;durP1;ratioP1;P1;durP2;ratioP2;P2;SDS_P1;SDS_P2;PMS_P1;PMS_P2;Temp;Humidity;BMP_temperature;BMP_pressure;BME280_temperature;BME280_humidity;BME280_pressure;Samples;Min_cycle;Max_cycle;Signal;HPM_P1;HPM_P2
2022/11/24 00:00:16;;;;;;;10.40;2.67;;;8.50;99.90;;;;;;5049173;28;20431;-76
2022/11/24 00:03:03;;;;;;;7.60;3.50;;;8.50;99.90;;;;;;5020986;28;20479;-75
2022/11/24 00:05:50;;;;;;;6.40;3.23;;;8.60;99.90;;;;;;5038064;28;20507;-75
2022/11/24 00:08:36;;;;;;;13.33;3.37;;;8.60;99.90;;;;;;5038945;28;20526;-74
2022/11/24 00:11:24;;;;;;;12.63;4.00;;;8.70;99.90;;;;;;5034954;28;21221;-72
2022/11/24 00:14:10;;;;;;;17.67;3.30;;;8.70;99.90;;;;;;5034893;28;20833;-73
2022/11/24 00:16:55;;;;;;;18.23;3.73;;;8.80;99.90;;;;;;5027970;28;20473;-73
2022/11/24 00:19:41;;;;;;;17.20;3.60;;;8.80;99.90;;;;;;5028594;28;20446;-73
2022/11/24 00:22:28;;;;;;;9.10;2.93;;;8.90;99.90;;;;;;5030893;28;20468;-73
2022/11/24 00:25:14;;;;;;;14.83;3.00;;;8.90;99.90;;;;;;5042658;28;21038;-73
2022/11/24 00:27:59;;;;;;;9.30;3.33;;;8.90;99.90;;;;;;5038210;28;20961;-73
2022/11/24 00:30:45;;;;;;;10.73;3.87;;;9.00;99.90;;;;;;5034886;28;20928;-73
2022/11/24 00:33:30;;;;;;;16.20;3.97;;;9.00;99.90;;;;;;5023059;28;20441;-73
2022/11/24 00:36:17;;;;;;;19.93;3.50;;;9.10;99.90;;;;;;5032016;28;20446;-73
2022/11/24 00:39:06;;;;;;;10.23;3.10;;;9.10;99.90;;;;;;5029993;28;20445;-73
2022/11/24 00:41:51;;;;;;;7.90;3.23;;;9.20;99.90;;;;;;5027449;28;20579;-73
2022/11/24 00:44:37;;;;;;;6.17;2.57;;;9.20;99.90;;;;;;5029825;28;20450;-72
2022/11/24 00:47:22;;;;;;;11.10;3.27;;;9.20;99.90;;;;;;5033121;28;20465;-73
2022/11/24 00:50:08;;;;;;;18.87;3.10;;;9.20;99.90;;;;;;5045067;28;20448;-73
2022/11/24 00:52:54;;;;;;;14.33;3.17;;;9.20;99.90;;;;;;5034978;28;20962;-73
2022/11/24 00:55:41;;;;;;;9.27;3.10;;;9.20;99.90;;;;;;5036153;28;20457;-75
2022/11/24 00:58:27;;;;;;;14.40;3.27;;;9.30;99.90;;;;;;5037420;28;20422;-75
2022/11/24 01:01:15;;;;;;;19.63;4.10;;;9.30;99.90;;;;;;5025117;28;21002;-74
2022/11/24 01:04:01;;;;;;;9.77;3.00;;;9.30;99.90;;;;;;5032470;28;21007;-74
2022/11/24 01:06:47;;;;;;;6.53;2.63;;;9.40;99.90;;;;;;5034446;28;20807;-75
2022/11/24 01:09:32;;;;;;;17.77;4.90;;;9.30;99.90;;;;;;5031937;28;20819;-75
2022/11/24 01:12:19;;;;;;;12.60;3.07;;;9.40;99.90;;;;;;5025788;28;20486;-75
2022/11/24 01:15:06;;;;;;;11.97;3.80;;;9.30;99.90;;;;;;5037175;28;20602;-75
2022/11/24 01:17:51;;;;;;;12.57;3.50;;;9.30;99.90;;;;;;5037788;28;20483;-75
2022/11/24 01:20:37;;;;;;;14.97;3.43;;;9.20;99.90;;;;;;5025616;28;20449;-75
2022/11/24 01:23:23;;;;;;;15.93;4.10;;;9.10;99.90;;;;;;5029981;28;20483;-75
2022/11/24 01:26:11;;;;;;;13.60;3.37;;;9.10;99.90;;;;;;5038849;28;20617;-75
2022/11/24 01:28:58;;;;;;;15.50;5.00;;;9.20;99.90;;;;;;5031444;28;20445;-75
2022/11/24 01:31:44;;;;;;;15.20;3.80;;;9.20;99.90;;;;;;5024645;28;20452;-74
2022/11/24 01:34:29;;;;;;;17.70;3.90;;;9.20;99.90;;;;;;5029335;28;21096;-75
2022/11/24 01:37:15;;;;;;;11.90;2.70;;;9.20;99.90;;;;;;5046279;28;20939;-75
2022/11/24 01:40:01;;;;;;;9.57;3.27;;;9.20;99.90;;;;;;5042203;28;20429;-74
2022/11/24 01:42:49;;;;;;;13.53;3.63;;;9.20;99.90;;;;;;5036021;28;20453;-75
2022/11/24 01:45:39;;;;;;;7.30;3.50;;;9.20;99.90;;;;;;5049136;28;20476;-75
2022/11/24 01:48:28;;;;;;;9.77;3.17;;;9.20;99.90;;;;;;5038803;28;20424;-75
2022/11/24 01:51:16;;;;;;;14.03;2.70;;;9.20;99.90;;;;;;5027123;28;20571;-75
2022/11/24 01:54:08;;;;;;;11.23;3.00;;;9.10;99.90;;;;;;5035721;28;20448;-75
2022/11/24 01:57:02;;;;;;;16.93;3.40;;;9.00;99.90;;;;;;5037096;28;20432;-75
2022/11/24 01:59:50;;;;;;;15.30;2.43;;;9.00;99.90;;;;;;5031235;28;20447;-75
2022/11/24 02:02:38;;;;;;;25.90;3.50;;;9.00;99.90;;;;;;5022948;28;20548;-75
2022/11/24 02:05:30;;;;;;;15.80;3.47;;;8.90;99.90;;;;;;5026126;28;20531;-74
2022/11/24 02:08:21;;;;;;;12.53;3.27;;;8.90;99.90;;;;;;5023623;28;20515;-76
2022/11/24 02:11:06;;;;;;;15.10;3.60;;;8.90;99.90;;;;;;5027281;28;20527;-74
2022/11/24 02:13:54;;;;;;;11.17;3.10;;;8.90;99.90;;;;;;5029240;28;20550;-75
2022/11/24 02:16:41;;;;;;;21.40;3.67;;;9.00;99.90;;;;;;5025785;28;20943;-75
2022/11/24 02:19:41;;;;;;;14.27;4.40;;;9.00;99.90;;;;;;5025317;28;20452;-74
2022/11/24 02:22:32;;;;;;;11.20;3.33;;;9.10;99.90;;;;;;5031229;28;20464;-75
2022/11/24 02:25:26;;;;;;;21.10;3.60;;;9.10;99.90;;;;;;5030024;28;20476;-74
2022/11/24 02:28:17;;;;;;;11.00;3.17;;;9.00;99.90;;;;;;5028828;28;20797;-74
2022/11/24 02:31:04;;;;;;;10.93;3.20;;;9.10;99.90;;;;;;5021144;28;20436;-74
2022/11/24 02:33:51;;;;;;;16.47;3.03;;;9.10;99.90;;;;;;5029538;28;20546;-75
2022/11/24 02:36:36;;;;;;;14.80;4.20;;;9.00;99.90;;;;;;5035359;28;20436;-75
2022/11/24 02:39:21;;;;;;;15.67;3.50;;;9.10;99.90;;;;;;5025375;28;20464;-75
2022/11/24 02:42:12;;;;;;;35.03;4.70;;;9.00;99.90;;;;;;5035023;28;20424;-75
2022/11/24 02:45:01;;;;;;;8.50;3.27;;;9.00;99.90;;;;;;5036565;28;20789;-75
2022/11/24 02:47:46;;;;;;;14.33;2.83;;;9.00;99.90;;;;;;5036543;28;20424;-75
2022/11/24 02:50:32;;;;;;;12.50;3.03;;;9.00;99.90;;;;;;5025395;28;20448;-75
2022/11/24 02:53:18;;;;;;;10.93;3.07;;;9.00;99.90;;;;;;5034433;28;20444;-75
2022/11/24 02:56:04;;;;;;;16.03;4.33;;;9.00;99.90;;;;;;5038598;28;20552;-75
2022/11/24 02:58:49;;;;;;;18.43;3.50;;;9.00;99.90;;;;;;5033010;28;20526;-73
2022/11/24 03:01:36;;;;;;;16.90;3.97;;;8.90;99.90;;;;;;5029823;28;20424;-75
2022/11/24 03:04:22;;;;;;;10.60;2.87;;;8.90;99.90;;;;;;5030993;28;20968;-75
2022/11/24 03:07:08;;;;;;;11.27;3.27;;;8.80;99.90;;;;;;5031222;28;20476;-74
2022/11/24 03:09:54;;;;;;;5.20;2.53;;;8.80;99.90;;;;;;5025515;28;20531;-75
2022/11/24 03:12:40;;;;;;;18.50;3.40;;;8.60;99.90;;;;;;5026606;28;20476;-75
2022/11/24 03:15:25;;;;;;;14.38;3.20;;;8.60;99.90;;;;;;5029784;28;20444;-75
2022/11/24 03:18:12;;;;;;;11.10;3.00;;;8.50;99.90;;;;;;5025661;28;20225;-75
2022/11/24 03:20:59;;;;;;;13.93;3.17;;;8.50;99.90;;;;;;5023788;28;22030;-75
2022/11/24 03:23:45;;;;;;;11.03;2.60;;;8.50;99.90;;;;;;5033556;28;20607;-75
2022/11/24 03:26:30;;;;;;;13.07;2.90;;;8.40;99.90;;;;;;5030730;28;20477;-75
2022/11/24 03:29:16;;;;;;;12.83;2.60;;;8.30;99.90;;;;;;5026735;28;20444;-75
2022/11/24 03:32:02;;;;;;;9.03;2.93;;;8.40;99.90;;;;;;5030190;28;20868;-75
2022/11/24 03:34:49;;;;;;;13.18;3.85;;;8.30;99.90;;;;;;5026694;28;20431;-75
2022/11/24 03:37:34;;;;;;;13.07;2.77;;;8.20;99.90;;;;;;5032502;28;20197;-75
2022/11/24 03:40:20;;;;;;;13.33;2.70;;;8.40;99.90;;;;;;5022632;28;20452;-75
2022/11/24 03:43:05;;;;;;;22.63;4.30;;;8.40;99.90;;;;;;5030898;28;20592;-75
2022/11/24 03:45:51;;;;;;;11.33;2.30;;;8.50;99.90;;;;;;5026235;28;21020;-75
2022/11/24 03:48:37;;;;;;;8.83;3.00;;;8.50;99.90;;;;;;5021225;28;20623;-74
2022/11/24 03:51:24;;;;;;;15.67;2.70;;;8.40;99.90;;;;;;5027804;28;20482;-75
2022/11/24 03:54:09;;;;;;;10.93;2.43;;;8.60;99.90;;;;;;5029692;28;21047;-75
2022/11/24 03:56:55;;;;;;;14.83;3.23;;;8.50;99.90;;;;;;5032969;28;20501;-74
2022/11/24 03:59:40;;;;;;;9.30;2.73;;;8.50;99.90;;;;;;5027323;28;20984;-74
2022/11/24 04:02:26;;;;;;;14.73;3.37;;;8.60;99.90;;;;;;5029333;28;20472;-75
2022/11/24 04:05:12;;;;;;;13.83;3.57;;;8.50;99.90;;;;;;5033202;28;20443;-74
2022/11/24 04:08:01;;;;;;;6.90;2.10;;;8.60;99.90;;;;;;5035165;28;20970;-75
2022/11/24 04:10:50;;;;;;;11.00;3.20;;;8.60;99.90;;;;;;5032360;28;20460;-75
2022/11/24 04:13:34;;;;;;;11.17;3.10;;;8.70;99.90;;;;;;5028616;28;20519;-74
2022/11/24 04:16:20;;;;;;;8.90;2.83;;;8.60;99.90;;;;;;5033127;28;20474;-75
2022/11/24 04:19:06;;;;;;;9.17;2.90;;;8.70;99.90;;;;;;5026229;28;20452;-75
2022/11/24 04:21:52;;;;;;;10.40;2.77;;;8.70;99.90;;;;;;5031428;28;20456;-75
2022/11/24 04:24:39;;;;;;;15.93;2.83;;;8.80;99.90;;;;;;5028785;28;20459;-75
2022/11/24 04:27:24;;;;;;;11.90;2.80;;;8.80;99.90;;;;;;5027582;28;20514;-75
2022/11/24 04:30:10;;;;;;;14.40;3.55;;;8.80;99.90;;;;;;5026026;28;20468;-75
2022/11/24 04:32:56;;;;;;;12.47;3.97;;;8.90;99.90;;;;;;5030318;28;20888;-75
2022/11/24 04:35:42;;;;;;;13.47;3.40;;;8.90;99.90;;;;;;5030070;28;20795;-74
2022/11/24 04:38:28;;;;;;;15.73;3.13;;;9.00;99.90;;;;;;5028708;28;20820;-75
2022/11/24 04:41:15;;;;;;;16.43;3.23;;;9.10;99.90;;;;;;5035450;28;20443;-75
2022/11/24 04:44:00;;;;;;;16.70;2.97;;;9.20;99.90;;;;;;5033014;28;20443;-74
2022/11/24 04:46:46;;;;;;;16.70;5.00;;;9.20;99.90;;;;;;5029000;28;20461;-75
2022/11/24 04:49:32;;;;;;;12.00;3.67;;;9.20;99.90;;;;;;5028891;28;20455;-75
2022/11/24 04:52:19;;;;;;;15.63;4.30;;;9.30;99.90;;;;;;5029759;28;20867;-75
2022/11/24 04:55:05;;;;;;;21.53;3.63;;;9.30;99.90;;;;;;5029541;28;20448;-75
2022/11/24 04:57:52;;;;;;;20.27;3.83;;;9.30;99.90;;;;;;5029721;28;20446;-74
2022/11/24 05:00:38;;;;;;;22.17;3.90;;;9.30;99.90;;;;;;5036714;28;20428;-75
2022/11/24 05:03:24;;;;;;;19.67;4.43;;;9.40;99.90;;;;;;5031616;28;20543;-75
2022/11/24 05:06:09;;;;;;;17.10;3.47;;;9.40;99.90;;;;;;5027517;28;20518;-74
2022/11/24 05:08:55;;;;;;;15.10;3.57;;;9.40;99.90;;;;;;5023608;28;20495;-75
2022/11/24 05:11:40;;;;;;;18.97;3.87;;;9.50;99.90;;;;;;5030258;28;20399;-75
2022/11/24 05:14:28;;;;;;;21.43;3.70;;;9.50;99.90;;;;;;5033534;28;20445;-75
2022/11/24 05:17:13;;;;;;;11.73;3.20;;;9.60;99.90;;;;;;5032061;28;20801;-73
2022/11/24 05:19:59;;;;;;;21.47;4.30;;;9.60;99.90;;;;;;5032172;28;20797;-75
2022/11/24 05:22:44;;;;;;;18.03;3.33;;;9.60;99.90;;;;;;5035042;28;20583;-75
2022/11/24 05:25:30;;;;;;;29.50;4.50;;;9.50;99.90;;;;;;5028210;28;20600;-74
2022/11/24 05:28:16;;;;;;;19.20;4.70;;;9.50;99.90;;;;;;5024785;28;20527;-74
2022/11/24 05:31:04;;;;;;;22.03;4.40;;;9.60;99.90;;;;;;5031234;28;20452;-75
2022/11/24 05:33:50;;;;;;;18.90;4.00;;;9.60;99.90;;;;;;5026057;28;20476;-75
2022/11/24 05:36:53;;;;;;;20.97;4.53;;;9.60;99.90;;;;;;5033753;28;20414;-75
2022/11/24 05:39:39;;;;;;;27.47;4.03;;;9.60;99.90;;;;;;5028034;28;20577;-75
2022/11/24 05:42:42;;;;;;;16.50;4.23;;;9.60;99.90;;;;;;5030475;28;20448;-75
2022/11/24 05:45:28;;;;;;;20.37;5.47;;;9.60;99.90;;;;;;5028168;28;20494;-73
2022/11/24 05:48:15;;;;;;;19.47;4.07;;;9.60;99.90;;;;;;5026923;28;20523;-74
2022/11/24 05:51:01;;;;;;;26.83;4.23;;;9.60;99.90;;;;;;5035479;28;20763;-75
2022/11/24 05:53:46;;;;;;;13.17;3.20;;;9.70;99.90;;;;;;5033822;28;20812;-75
2022/11/24 05:56:32;;;;;;;30.33;4.30;;;9.60;99.90;;;;;;5027536;28;20498;-75
2022/11/24 05:59:18;;;;;;;31.03;4.77;;;9.60;99.90;;;;;;5031920;28;20436;-75
2022/11/24 06:02:04;;;;;;;22.23;3.97;;;9.60;99.90;;;;;;5027023;28;20567;-74
2022/11/24 06:04:51;;;;;;;21.93;4.20;;;9.70;99.90;;;;;;5030223;28;20432;-75
2022/11/24 06:07:37;;;;;;;22.10;3.43;;;9.70;99.90;;;;;;5026853;28;20476;-75
2022/11/24 06:10:23;;;;;;;23.40;4.27;;;9.70;99.90;;;;;;5028212;28;20810;-75
2022/11/24 06:13:09;;;;;;;21.53;4.00;;;9.70;99.90;;;;;;5033436;28;20466;-75
2022/11/24 06:15:54;;;;;;;33.07;4.70;;;9.70;99.90;;;;;;5031523;28;20403;-75
2022/11/24 06:18:40;;;;;;;17.60;3.77;;;9.70;99.90;;;;;;5026147;28;20444;-73
2022/11/24 06:21:27;;;;;;;25.03;4.97;;;9.70;99.90;;;;;;5035277;28;20402;-74
2022/11/24 06:24:13;;;;;;;28.70;4.83;;;9.70;99.90;;;;;;5025136;28;20443;-75
2022/11/24 06:26:59;;;;;;;22.53;4.90;;;9.70;99.90;;;;;;5026090;28;20481;-75
2022/11/24 06:29:44;;;;;;;27.77;4.37;;;9.70;99.90;;;;;;5038545;28;20435;-75
2022/11/24 06:32:30;;;;;;;29.37;6.00;;;9.70;99.90;;;;;;5031142;28;20456;-74
2022/11/24 06:35:16;;;;;;;26.67;3.80;;;9.60;99.90;;;;;;5034015;28;20428;-75
2022/11/24 06:38:04;;;;;;;13.50;4.10;;;9.70;99.90;;;;;;5025810;28;20527;-75
2022/11/24 06:40:50;;;;;;;32.00;4.30;;;9.70;99.90;;;;;;5030691;28;20874;-75
2022/11/24 06:43:36;;;;;;;37.70;5.00;;;9.60;99.90;;;;;;5033453;28;20448;-75
2022/11/24 06:46:21;;;;;;;25.20;5.73;;;9.60;99.90;;;;;;5028542;28;20511;-74
2022/11/24 06:49:07;;;;;;;19.70;4.03;;;9.60;99.90;;;;;;5030479;28;20437;-75
2022/11/24 06:51:54;;;;;;;16.77;4.40;;;9.50;99.90;;;;;;5028759;28;20944;-75
2022/11/24 06:54:42;;;;;;;22.43;4.00;;;9.50;99.90;;;;;;5036371;28;20956;-75
2022/11/24 06:57:28;;;;;;;17.00;3.83;;;9.40;99.90;;;;;;5026284;28;20579;-75
2022/11/24 07:00:14;;;;;;;21.87;4.37;;;9.40;99.90;;;;;;5027401;28;20607;-75
2022/11/24 07:03:00;;;;;;;17.80;3.70;;;9.30;99.90;;;;;;5032002;28;20490;-75
2022/11/24 07:05:46;;;;;;;15.07;3.77;;;9.20;99.90;;;;;;5035589;28;20471;-74
2022/11/24 07:08:31;;;;;;;26.00;4.80;;;9.30;99.90;;;;;;5034333;28;20439;-74
2022/11/24 07:11:21;;;;;;;17.90;3.73;;;9.20;99.90;;;;;;5035362;28;20437;-74
2022/11/24 07:14:07;;;;;;;16.97;4.27;;;9.20;99.90;;;;;;5027367;28;20554;-75
2022/11/24 07:16:52;;;;;;;19.37;5.23;;;9.20;99.90;;;;;;5024435;28;20436;-75
2022/11/24 07:19:37;;;;;;;26.60;4.80;;;9.20;99.90;;;;;;5032333;28;20976;-74
2022/11/24 07:22:23;;;;;;;35.43;5.80;;;9.20;99.90;;;;;;5023338;28;20955;-75
2022/11/24 07:25:09;;;;;;;11.63;3.90;;;9.20;99.90;;;;;;5031144;28;20590;-73
2022/11/24 07:28:00;;;;;;;19.87;3.93;;;9.20;99.90;;;;;;5027564;28;20500;-75
2022/11/24 07:30:46;;;;;;;13.73;3.83;;;9.20;99.90;;;;;;5026175;28;20982;-74
2022/11/24 07:33:31;;;;;;;17.13;3.10;;;9.20;99.90;;;;;;5040228;28;20516;-75
2022/11/24 07:36:17;;;;;;;17.10;3.53;;;9.20;99.90;;;;;;5024674;28;20415;-75
2022/11/24 07:39:05;;;;;;;22.37;4.20;;;9.20;99.90;;;;;;5033644;28;20486;-75
2022/11/24 07:41:51;;;;;;;18.83;3.87;;;9.20;99.90;;;;;;5032524;28;20943;-75
2022/11/24 07:44:39;;;;;;;15.80;3.50;;;9.10;99.90;;;;;;5028315;28;20456;-75
2022/11/24 07:47:25;;;;;;;12.50;3.77;;;9.20;99.90;;;;;;5035363;28;20493;-75
2022/11/24 07:50:11;;;;;;;15.33;4.50;;;9.20;99.90;;;;;;5034419;28;20583;-75
2022/11/24 07:53:01;;;;;;;18.13;4.20;;;9.30;99.90;;;;;;5032049;28;20489;-75
2022/11/24 07:55:54;;;;;;;26.57;3.97;;;9.30;99.90;;;;;;5028151;28;20461;-75
2022/11/24 07:58:39;;;;;;;17.47;3.93;;;9.20;99.90;;;;;;5027860;28;20486;-75
2022/11/24 08:01:26;;;;;;;21.20;4.07;;;9.20;99.90;;;;;;5030166;28;20468;-75
2022/11/24 08:04:11;;;;;;;22.50;3.40;;;9.30;99.90;;;;;;5045518;28;20541;-75
2022/11/24 08:06:57;;;;;;;17.07;3.90;;;9.30;99.90;;;;;;5029051;28;20724;-75
2022/11/24 08:09:43;;;;;;;11.40;3.83;;;9.30;99.90;;;;;;5046130;28;20902;-74
2022/11/24 08:12:28;;;;;;;21.07;3.90;;;9.30;99.90;;;;;;5038992;28;20422;-75
2022/11/24 08:15:14;;;;;;;15.30;3.43;;;9.30;99.90;;;;;;5020458;28;20449;-75
2022/11/24 08:18:02;;;;;;;13.27;3.43;;;9.30;99.90;;;;;;5036835;28;20484;-75
2022/11/24 08:20:48;;;;;;;10.80;3.47;;;9.30;99.90;;;;;;5032398;28;20416;-75
2022/11/24 08:23:33;;;;;;;15.07;3.27;;;9.30;99.90;;;;;;5038651;28;20419;-74
2022/11/24 08:26:19;;;;;;;14.10;3.70;;;9.30;99.90;;;;;;5021967;28;20447;-76
2022/11/24 08:29:05;;;;;;;19.30;3.57;;;9.20;99.90;;;;;;5036820;28;20436;-75
2022/11/24 08:31:50;;;;;;;17.43;4.10;;;9.20;99.90;;;;;;5034985;28;20485;-76
2022/11/24 08:34:37;;;;;;;14.60;4.20;;;9.20;99.90;;;;;;5027767;28;20447;-74
2022/11/24 08:37:24;;;;;;;21.27;5.77;;;9.20;99.90;;;;;;5031747;28;20419;-75
2022/11/24 08:40:12;;;;;;;20.07;4.70;;;9.30;99.90;;;;;;5033079;28;20441;-75
2022/11/24 08:42:57;;;;;;;20.90;4.50;;;9.40;99.90;;;;;;5030475;28;20502;-75
2022/11/24 08:45:43;;;;;;;16.40;3.90;;;9.40;99.90;;;;;;5023216;28;20523;-75
2022/11/24 08:48:29;;;;;;;9.23;3.90;;;9.50;99.90;;;;;;5030147;28;20475;-74
2022/11/24 08:51:18;;;;;;;18.87;4.47;;;9.60;99.90;;;;;;5026578;28;20490;-74
2022/11/24 08:54:03;;;;;;;9.87;3.60;;;9.60;99.90;;;;;;5033728;28;20471;-75
2022/11/24 08:56:49;;;;;;;13.90;3.57;;;9.60;99.90;;;;;;5029849;28;20513;-75
2022/11/24 08:59:35;;;;;;;14.80;4.17;;;9.60;99.90;;;;;;5030173;28;20794;-75
2022/11/24 09:02:20;;;;;;;21.63;4.50;;;9.70;99.90;;;;;;5025992;28;20499;-76
2022/11/24 09:05:06;;;;;;;32.30;4.30;;;9.70;99.90;;;;;;5026462;28;20436;-76
2022/11/24 09:07:53;;;;;;;17.23;4.30;;;9.70;99.90;;;;;;5030087;28;20438;-74
2022/11/24 09:10:39;;;;;;;13.93;3.60;;;9.70;99.90;;;;;;5036023;28;20449;-76
2022/11/24 09:13:24;;;;;;;8.90;3.80;;;9.70;99.90;;;;;;5031216;28;20464;-76
2022/11/24 09:16:15;;;;;;;9.70;3.60;;;9.70;99.90;;;;;;5027214;28;20587;-75
2022/11/24 09:19:03;;;;;;;17.57;5.13;;;9.70;99.90;;;;;;5032525;28;20527;-75
2022/11/24 09:21:48;;;;;;;18.23;4.10;;;9.70;99.90;;;;;;5032850;28;20422;-75
2022/11/24 09:24:35;;;;;;;13.40;4.10;;;9.70;99.90;;;;;;5021764;28;21028;-76
2022/11/24 09:27:21;;;;;;;16.90;4.67;;;9.60;99.90;;;;;;5035050;28;20813;-76
2022/11/24 09:30:08;;;;;;;17.20;4.30;;;9.60;99.90;;;;;;5029310;28;20808;-76
2022/11/24 09:32:55;;;;;;;29.20;4.50;;;9.60;99.90;;;;;;5025942;28;20442;-75
2022/11/24 09:35:41;;;;;;;10.57;3.97;;;9.60;99.90;;;;;;5027731;28;20409;-76
2022/11/24 09:38:27;;;;;;;10.40;3.20;;;9.70;99.90;;;;;;5026873;28;20456;-75
2022/11/24 09:41:39;;;;;;;12.03;3.40;;;9.80;99.90;;;;;;5032042;28;20849;-76
2022/11/24 09:44:56;;;;;;;10.47;3.57;;;9.80;99.90;;;;;;5018327;28;20568;-75
2022/11/24 09:47:59;;;;;;;13.87;3.43;;;10.00;99.90;;;;;;5040036;28;20450;-74
2022/11/24 09:50:48;;;;;;;9.53;3.00;;;10.10;99.90;;;;;;5027680;28;20448;-75
2022/11/24 09:53:37;;;;;;;12.97;3.20;;;10.10;99.90;;;;;;5022032;28;20464;-75
2022/11/24 09:56:27;;;;;;;9.70;3.23;;;10.30;99.90;;;;;;5028210;28;20444;-76
2022/11/24 09:59:16;;;;;;;19.47;3.40;;;10.50;99.90;;;;;;5030064;28;20448;-76
2022/11/24 10:02:02;;;;;;;9.77;3.30;;;10.60;99.90;;;;;;5029476;28;20474;-76
2022/11/24 10:04:48;;;;;;;13.00;2.70;;;10.80;99.90;;;;;;5024377;28;20445;-76
2022/11/24 10:07:41;;;;;;;9.70;2.50;;;10.70;99.90;;;;;;5035631;28;20480;-76
2022/11/24 10:10:34;;;;;;;9.93;3.57;;;10.70;99.90;;;;;;5040441;28;20470;-76
2022/11/24 10:13:35;;;;;;;10.60;3.00;;;10.60;99.90;;;;;;5031349;28;20464;-75
2022/11/24 10:16:33;;;;;;;7.73;2.40;;;10.50;99.90;;;;;;5029301;28;20429;-75
2022/11/24 10:19:31;;;;;;;17.57;4.03;;;10.50;99.90;;;;;;5034536;28;20420;-75
2022/11/24 10:22:34;;;;;;;7.37;2.37;;;10.30;99.90;;;;;;5036532;28;20552;-76
2022/11/24 10:25:24;;;;;;;10.57;4.13;;;10.30;99.90;;;;;;5027853;28;20787;-75
2022/11/24 10:28:13;;;;;;;12.37;3.63;;;10.30;99.90;;;;;;5029698;28;20832;-75
2022/11/24 10:31:17;;;;;;;8.27;2.37;;;10.50;99.90;;;;;;5035390;28;20432;-75
2022/11/24 10:34:13;;;;;;;8.83;2.50;;;10.80;99.90;;;;;;5024090;28;21030;-75
2022/11/24 10:37:04;;;;;;;13.13;3.10;;;11.10;99.90;;;;;;5029599;28;20503;-75
2022/11/24 10:39:58;;;;;;;9.93;3.80;;;11.10;99.90;;;;;;5034586;28;20486;-74
2022/11/24 10:42:47;;;;;;;16.50;2.90;;;11.30;99.90;;;;;;5032452;28;20847;-75
2022/11/24 10:45:33;;;;;;;11.37;3.20;;;11.40;99.90;;;;;;5026709;28;20806;-73
2022/11/24 10:48:24;;;;;;;10.63;3.13;;;11.40;99.90;;;;;;5025628;28;20444;-73
2022/11/24 10:51:41;;;;;;;12.50;3.57;;;11.40;99.90;;;;;;5034333;28;20448;-73
2022/11/24 10:54:26;;;;;;;12.17;2.80;;;11.30;99.90;;;;;;5029443;28;20460;-73
2022/11/24 10:57:28;;;;;;;8.93;2.70;;;11.30;99.90;;;;;;5031351;28;20778;-73
2022/11/24 11:00:34;;;;;;;7.23;2.80;;;11.10;99.90;;;;;;5036203;28;20575;-73
2022/11/24 11:03:23;;;;;;;10.90;2.37;;;11.10;99.90;;;;;;5016936;28;20463;-73
2022/11/24 11:06:12;;;;;;;7.60;1.90;;;11.10;99.90;;;;;;5026926;28;21062;-73
2022/11/24 11:09:18;;;;;;;10.80;3.13;;;11.10;99.90;;;;;;5032275;28;20554;-73
2022/11/24 11:12:10;;;;;;;11.23;2.97;;;11.00;99.90;;;;;;5039971;28;20424;-73
2022/11/24 11:14:56;;;;;;;11.90;2.30;;;11.00;99.90;;;;;;5025601;28;20593;-73
2022/11/24 11:17:44;;;;;;;11.60;3.33;;;11.00;99.90;;;;;;5023175;28;20456;-73
2022/11/24 11:20:33;;;;;;;9.43;2.50;;;11.00;99.90;;;;;;5022306;28;20637;-73
2022/11/24 11:23:27;;;;;;;11.23;3.23;;;11.10;99.90;;;;;;5019864;28;20969;-73
2022/11/24 11:26:30;;;;;;;6.83;2.27;;;11.00;99.90;;;;;;5028283;28;20427;-73
2022/11/24 11:29:19;;;;;;;12.70;2.00;;;11.20;99.90;;;;;;5022660;28;20942;-73
2022/11/24 11:32:17;;;;;;;8.07;2.77;;;11.20;99.90;;;;;;5022743;28;20422;-75
2022/11/24 11:35:03;;;;;;;9.37;2.50;;;11.30;99.90;;;;;;5019398;28;20977;-75
2022/11/24 11:37:53;;;;;;;6.90;2.67;;;11.30;99.90;;;;;;5031351;28;20470;-75
2022/11/24 11:40:41;;;;;;;12.60;3.37;;;11.30;99.90;;;;;;5034332;28;20579;-75
2022/11/24 11:43:31;;;;;;;9.13;2.20;;;11.20;99.90;;;;;;5023315;28;20469;-75
2022/11/24 11:46:16;;;;;;;16.93;3.80;;;11.20;99.90;;;;;;5037789;28;20427;-75
2022/11/24 11:49:03;;;;;;;14.33;3.20;;;11.10;99.90;;;;;;5035380;28;20492;-74
2022/11/24 11:52:16;;;;;;;9.40;2.33;;;11.20;99.90;;;;;;5035167;28;20514;-74
2022/11/24 11:55:40;;;;;;;10.80;3.30;;;11.20;99.90;;;;;;5021340;28;20587;-75
2022/11/24 11:59:03;;;;;;;27.00;10.10;;;11.10;99.90;;;;;;5007441;28;20436;-74
2022/11/24 12:02:29;;;;;;;66.90;26.20;;;11.10;99.90;;;;;;5031838;28;20479;-74
2022/11/24 12:05:23;;;;;;;21.10;8.77;;;11.00;99.90;;;;;;5008545;28;20898;-75
2022/11/24 12:08:26;;;;;;;9.90;3.30;;;11.00;99.90;;;;;;5028419;28;20984;-75
2022/11/24 12:11:17;;;;;;;38.73;18.40;;;11.00;99.90;;;;;;5037883;28;20444;-76
2022/11/24 12:14:13;;;;;;;19.67;5.20;;;11.10;99.90;;;;;;5026251;28;20547;-75
2022/11/24 12:17:06;;;;;;;18.73;6.67;;;11.10;99.90;;;;;;5033561;28;20463;-75
2022/11/24 12:20:14;;;;;;;7.63;3.23;;;11.20;99.90;;;;;;5038092;28;20432;-75
2022/11/24 12:23:10;;;;;;;11.37;2.70;;;11.30;99.90;;;;;;5023145;28;20464;-74
2022/11/24 12:26:04;;;;;;;6.23;2.80;;;11.50;99.90;;;;;;5037583;28;20784;-75
2022/11/24 12:28:57;;;;;;;11.87;3.13;;;11.60;99.90;;;;;;5037343;28;21007;-74
2022/11/24 12:31:52;;;;;;;11.57;3.10;;;11.70;99.90;;;;;;5041876;28;20519;-72
2022/11/24 12:34:50;;;;;;;6.50;2.97;;;11.60;99.90;;;;;;5031109;28;20446;-72
2022/11/24 12:37:49;;;;;;;13.50;2.77;;;11.60;99.90;;;;;;5043431;28;20808;-73
2022/11/24 12:40:52;;;;;;;8.00;2.20;;;11.60;99.90;;;;;;5039318;28;20549;-73
2022/11/24 12:43:39;;;;;;;6.70;2.07;;;11.60;99.90;;;;;;5027996;28;20476;-74
2022/11/24 12:46:34;;;;;;;9.83;2.53;;;11.70;99.90;;;;;;5035575;28;20424;-73
2022/11/24 12:49:33;;;;;;;16.27;3.13;;;11.60;99.90;;;;;;5033153;28;21073;-72
2022/11/24 12:52:23;;;;;;;13.17;2.60;;;11.60;99.90;;;;;;5026643;28;20498;-74
2022/11/24 12:55:17;;;;;;;16.80;4.00;;;11.50;99.90;;;;;;5023379;28;20472;-72
2022/11/24 12:58:07;;;;;;;13.40;3.23;;;11.40;99.90;;;;;;5031926;28;20436;-71
2022/11/24 13:01:06;;;;;;;18.60;3.50;;;11.40;99.90;;;;;;5041162;28;20542;-73
2022/11/24 13:04:04;;;;;;;19.13;3.80;;;11.40;99.90;;;;;;5025603;28;20468;-76
2022/11/24 13:06:55;;;;;;;12.80;4.70;;;11.40;99.90;;;;;;5025187;28;20448;-75
2022/11/24 13:10:19;;;;;;;21.87;6.80;;;11.40;99.90;;;;;;5029662;28;20546;-76
2022/11/24 13:13:06;;;;;;;9.80;3.20;;;11.40;99.90;;;;;;5025939;28;20466;-76
2022/11/24 13:16:17;;;;;;;12.10;2.50;;;11.40;99.90;;;;;;5025375;28;20452;-76
2022/11/24 13:19:08;;;;;;;9.93;3.00;;;11.60;99.90;;;;;;5014902;28;20460;-74
2022/11/24 13:22:15;;;;;;;8.60;2.83;;;11.60;99.90;;;;;;5024152;28;21028;-76
2022/11/24 13:25:18;;;;;;;9.53;3.10;;;11.60;99.90;;;;;;5022347;28;20456;-74
2022/11/24 13:28:05;;;;;;;16.03;4.10;;;11.50;99.90;;;;;;5024440;28;20501;-75
2022/11/24 13:31:07;;;;;;;8.70;3.27;;;11.50;99.90;;;;;;5023988;28;20583;-75
2022/11/24 13:33:52;;;;;;;9.63;3.03;;;11.40;99.90;;;;;;5021519;28;20477;-76
2022/11/24 13:36:53;;;;;;;8.17;3.13;;;11.40;99.90;;;;;;5029055;28;20994;-76
2022/11/24 13:39:50;;;;;;;10.03;2.80;;;11.40;99.90;;;;;;5026653;28;20455;-76
2022/11/24 13:43:16;;;;;;;15.80;4.37;;;11.40;99.90;;;;;;5018338;28;20451;-75
2022/11/24 13:46:02;;;;;;;13.43;3.00;;;11.30;99.90;;;;;;5024265;28;20456;-73
2022/11/24 13:48:59;;;;;;;8.73;2.80;;;11.30;99.90;;;;;;5024287;28;20458;-75
2022/11/24 13:51:45;;;;;;;15.13;3.77;;;11.30;99.90;;;;;;5035007;28;20465;-75
2022/11/24 13:54:31;;;;;;;9.37;3.13;;;11.20;99.90;;;;;;5030653;28;20990;-75
2022/11/24 13:57:35;;;;;;;8.33;3.80;;;11.10;99.90;;;;;;5029467;28;20427;-76
2022/11/24 14:00:22;;;;;;;15.27;3.07;;;11.10;99.90;;;;;;5039861;28;21031;-74
2022/11/24 14:03:20;;;;;;;7.93;3.30;;;11.00;99.90;;;;;;5022124;28;20486;-75
2022/11/24 14:06:06;;;;;;;9.67;3.57;;;10.90;99.90;;;;;;5021949;28;20852;-76
2022/11/24 14:08:52;;;;;;;7.90;2.50;;;10.90;99.90;;;;;;5023082;28;20496;-75
2022/11/24 14:11:38;;;;;;;5.17;2.03;;;10.80;99.90;;;;;;5016307;28;20445;-76
2022/11/24 14:14:25;;;;;;;8.10;2.23;;;10.70;99.90;;;;;;5020825;28;21024;-75
2022/11/24 14:17:21;;;;;;;8.13;2.57;;;10.60;99.90;;;;;;5046172;28;20447;-75
2022/11/24 14:20:21;;;;;;;7.63;2.90;;;10.50;99.90;;;;;;5039580;28;20431;-76
2022/11/24 14:23:10;;;;;;;9.93;3.60;;;10.40;99.90;;;;;;5028854;28;20462;-76
2022/11/24 14:25:55;;;;;;;11.67;3.50;;;10.40;99.90;;;;;;5035433;28;21064;-76
2022/11/24 14:28:41;;;;;;;10.67;3.10;;;10.50;99.90;;;;;;5034922;28;20475;-76
2022/11/24 14:31:28;;;;;;;20.97;3.80;;;10.60;99.90;;;;;;5031035;28;20444;-76
2022/11/24 14:34:16;;;;;;;16.60;3.60;;;10.70;99.90;;;;;;5016562;28;20460;-75
2022/11/24 14:37:02;;;;;;;15.63;4.67;;;10.80;99.90;;;;;;5036291;28;20444;-76
2022/11/24 14:39:47;;;;;;;11.47;4.27;;;10.80;99.90;;;;;;5044116;28;20502;-75